createdAt,value
2023-05-05T00:00:19.177Z,475.00
2023-05-05T00:01:19.187Z,479.00
2023-05-05T00:02:19.245Z,476.00
2023-05-05T00:03:19.282Z,473.00
2023-05-05T00:04:19.287Z,476.00
2023-05-05T00:05:19.243Z,476.00
2023-05-05T00:06:19.248Z,477.00
2023-05-05T00:07:19.255Z,477.00
2023-05-05T00:08:19.289Z,478.00
2023-05-05T00:09:19.333Z,480.00
2023-05-05T00:10:19.391Z,480.00
2023-05-05T00:11:19.349Z,478.00
2023-05-05T00:12:19.402Z,478.00
2023-05-05T00:13:19.418Z,477.00
2023-05-05T00:14:19.421Z,475.00
2023-05-05T00:15:19.473Z,474.00
2023-05-05T00:16:19.543Z,477.00
2023-05-05T00:17:19.555Z,480.00
2023-05-05T00:18:19.494Z,482.00
2023-05-05T00:19:19.546Z,483.00
2023-05-05T00:20:19.567Z,485.00
2023-05-05T00:21:19.688Z,485.00
2023-05-05T00:22:19.599Z,486.00
2023-05-05T00:23:19.639Z,485.00
2023-05-05T00:24:19.642Z,485.00
2023-05-05T00:25:19.655Z,484.00
2023-05-05T00:26:19.710Z,484.00
2023-05-05T00:27:19.697Z,483.00
2023-05-05T00:28:19.728Z,481.00
2023-05-05T00:29:19.781Z,480.00
2023-05-05T00:30:19.792Z,479.00
2023-05-05T00:31:19.872Z,480.00
2023-05-05T00:32:19.861Z,481.00
2023-05-05T00:33:19.863Z,481.00
2023-05-05T00:34:19.884Z,483.00
2023-05-05T00:35:19.937Z,484.00
2023-05-05T00:36:19.905Z,481.00
2023-05-05T00:37:19.924Z,481.00
2023-05-05T00:38:19.960Z,480.00
2023-05-05T00:39:20.012Z,479.00
2023-05-05T00:40:20.026Z,479.00
2023-05-05T00:41:20.025Z,478.00
2023-05-05T00:42:20.040Z,481.00
2023-05-05T00:43:20.058Z,481.00
2023-05-05T00:44:20.144Z,482.00
2023-05-05T00:45:20.170Z,483.00
2023-05-05T00:46:20.211Z,485.00
2023-05-05T00:47:20.136Z,487.00
2023-05-05T00:48:20.189Z,488.00
2023-05-05T00:49:20.206Z,487.00
2023-05-05T00:50:20.235Z,484.00
2023-05-05T00:51:20.253Z,486.00
2023-05-05T00:52:20.253Z,485.00
2023-05-05T00:53:20.312Z,484.00
2023-05-05T00:54:20.317Z,485.00
2023-05-05T00:55:20.339Z,484.00
2023-05-05T00:56:20.325Z,487.00
2023-05-05T00:57:20.383Z,487.00
2023-05-05T00:58:20.369Z,485.00
2023-05-05T00:59:20.436Z,484.00
2023-05-05T01:00:20.470Z,483.00
2023-05-05T01:01:20.501Z,483.00
2023-05-05T01:02:20.513Z,480.00
2023-05-05T01:03:20.608Z,480.00
2023-05-05T01:04:20.546Z,479.00
2023-05-05T01:05:20.594Z,478.00
2023-05-05T01:06:20.604Z,476.00
2023-05-05T01:07:20.601Z,476.00
2023-05-05T01:08:20.658Z,477.00
2023-05-05T01:09:20.645Z,479.00
2023-05-05T01:10:21.078Z,481.00
2023-05-05T01:11:20.799Z,482.00
2023-05-05T01:12:20.742Z,483.00
2023-05-05T01:13:20.775Z,479.00
2023-05-05T01:14:20.804Z,479.00
2023-05-05T01:15:20.821Z,480.00
2023-05-05T01:16:20.902Z,479.00
2023-05-05T01:17:20.886Z,480.00
2023-05-05T01:18:20.891Z,480.00
2023-05-05T01:19:20.933Z,478.00
2023-05-05T01:20:20.925Z,478.00
2023-05-05T01:21:21.493Z,478.00
2023-05-05T01:22:21.032Z,481.00
2023-05-05T01:23:21.021Z,485.00
2023-05-05T01:24:21.069Z,487.00
2023-05-05T01:25:21.087Z,488.00
2023-05-05T01:26:21.146Z,486.00
2023-05-05T01:27:21.166Z,485.00
2023-05-05T01:28:21.169Z,483.00
2023-05-05T01:29:21.159Z,482.00
2023-05-05T01:30:21.231Z,481.00
2023-05-05T01:31:21.311Z,479.00
2023-05-05T01:32:21.313Z,478.00
2023-05-05T01:33:21.322Z,478.00
2023-05-05T01:34:21.357Z,476.00
2023-05-05T01:35:21.362Z,473.00
2023-05-05T01:36:21.364Z,476.00
2023-05-05T01:37:21.399Z,474.00
2023-05-05T01:38:21.569Z,475.00
2023-05-05T01:39:21.461Z,475.00
2023-05-05T01:40:21.494Z,471.00
2023-05-05T01:41:21.545Z,470.00
2023-05-05T01:42:21.535Z,468.00
2023-05-05T01:43:21.572Z,469.00
2023-05-05T01:44:21.625Z,469.00
2023-05-05T01:45:21.603Z,467.00
2023-05-05T01:46:21.680Z,473.00
2023-05-05T01:47:21.703Z,473.00
2023-05-05T01:48:21.728Z,474.00
2023-05-05T01:49:21.728Z,472.00
2023-05-05T01:50:21.743Z,473.00
2023-05-05T01:51:21.768Z,474.00
2023-05-05T01:52:21.808Z,474.00
2023-05-05T01:53:21.891Z,474.00
2023-05-05T01:54:21.895Z,474.00
2023-05-05T01:55:21.925Z,475.00
2023-05-05T01:56:21.959Z,476.00
2023-05-05T01:57:21.982Z,479.00
2023-05-05T01:58:21.980Z,479.00
2023-05-05T01:59:22.024Z,480.00
2023-05-05T02:00:22.098Z,478.00
2023-05-05T02:01:22.113Z,482.00
2023-05-05T02:02:22.185Z,481.00
2023-05-05T02:03:22.301Z,482.00
2023-05-05T02:04:22.207Z,480.00
2023-05-05T02:05:22.242Z,479.00
2023-05-05T02:06:22.260Z,477.00
2023-05-05T02:07:22.292Z,476.00
2023-05-05T02:08:22.276Z,478.00
2023-05-05T02:09:22.336Z,477.00
2023-05-05T02:10:22.397Z,475.00
2023-05-05T02:11:22.377Z,476.00
2023-05-05T02:12:22.400Z,476.00
2023-05-05T02:13:22.502Z,477.00
2023-05-05T02:14:22.503Z,480.00
2023-05-05T02:15:22.568Z,478.00
2023-05-05T02:16:22.593Z,481.00
2023-05-05T02:17:22.686Z,482.00
2023-05-05T02:18:22.599Z,480.00
2023-05-05T02:19:22.639Z,481.00
2023-05-05T02:20:22.680Z,482.00
2023-05-05T02:21:22.769Z,484.00
2023-05-05T02:22:22.750Z,481.00
2023-05-05T02:23:22.736Z,479.00
2023-05-05T02:24:22.829Z,479.00
2023-05-05T02:25:22.835Z,478.00
2023-05-05T02:26:22.864Z,476.00
2023-05-05T02:27:22.998Z,476.00
2023-05-05T02:28:22.918Z,477.00
2023-05-05T02:29:22.968Z,476.00
2023-05-05T02:30:22.962Z,475.00
2023-05-05T02:31:23.091Z,475.00
2023-05-05T02:32:23.103Z,474.00
2023-05-05T02:33:23.081Z,476.00
2023-05-05T02:34:23.093Z,475.00
2023-05-05T02:35:23.116Z,476.00
2023-05-05T02:36:23.144Z,477.00
2023-05-05T02:37:23.226Z,478.00
2023-05-05T02:38:23.206Z,479.00
2023-05-05T02:39:23.287Z,480.00
2023-05-05T02:40:23.270Z,481.00
2023-05-05T02:41:23.315Z,482.00
2023-05-05T02:42:23.358Z,483.00
2023-05-05T02:43:23.396Z,484.00
2023-05-05T02:44:23.421Z,484.00
2023-05-05T02:45:23.464Z,484.00
2023-05-05T02:46:23.487Z,482.00
2023-05-05T02:47:23.535Z,482.00
2023-05-05T02:48:23.516Z,483.00
2023-05-05T02:49:23.576Z,482.00
2023-05-05T02:50:23.565Z,483.00
2023-05-05T02:51:23.640Z,483.00
2023-05-05T02:52:23.643Z,481.00
2023-05-05T02:53:23.644Z,480.00
2023-05-05T02:54:23.700Z,478.00
2023-05-05T02:55:23.771Z,476.00
2023-05-05T02:56:23.778Z,477.00
2023-05-05T02:57:23.813Z,478.00
2023-05-05T02:58:23.825Z,479.00
2023-05-05T02:59:23.888Z,477.00
2023-05-05T03:00:23.907Z,476.00
2023-05-05T03:01:23.929Z,477.00
2023-05-05T03:02:23.973Z,479.00
2023-05-05T03:03:24.101Z,478.00
2023-05-05T03:04:24.036Z,476.00
2023-05-05T03:05:24.089Z,475.00
2023-05-05T03:06:24.155Z,475.00
2023-05-05T03:07:24.224Z,478.00
2023-05-05T03:08:24.153Z,481.00
2023-05-05T03:09:24.222Z,481.00
2023-05-05T03:10:24.242Z,480.00
2023-05-05T03:11:24.271Z,481.00
2023-05-05T03:12:24.296Z,482.00
2023-05-05T03:13:24.317Z,482.00
2023-05-05T03:14:24.448Z,481.00
2023-05-05T03:15:24.410Z,481.00
2023-05-05T03:16:24.492Z,480.00
2023-05-05T03:17:24.597Z,478.00
2023-05-05T03:18:24.548Z,481.00
2023-05-05T03:19:24.671Z,477.00
2023-05-05T03:20:24.591Z,478.00
2023-05-05T03:21:24.763Z,475.00
2023-05-05T03:22:24.698Z,473.00
2023-05-05T03:23:24.705Z,471.00
2023-05-05T03:24:24.724Z,472.00
2023-05-05T03:25:24.782Z,473.00
2023-05-05T03:26:24.787Z,476.00
2023-05-05T03:27:24.839Z,475.00
2023-05-05T03:28:24.937Z,477.00
2023-05-05T03:29:24.912Z,478.00
2023-05-05T03:30:24.971Z,477.00
2023-05-05T03:31:25.068Z,480.00
2023-05-05T03:32:25.099Z,480.00
2023-05-05T03:33:25.102Z,478.00
2023-05-05T03:34:25.157Z,479.00
2023-05-05T03:35:25.218Z,480.00
2023-05-05T03:36:27.205Z,479.00
2023-05-05T03:37:25.237Z,478.00
2023-05-05T03:38:25.229Z,477.00
2023-05-05T03:39:25.229Z,477.00
2023-05-05T03:40:36.200Z,476.00
2023-05-05T03:41:26.227Z,476.00
2023-05-05T03:42:25.206Z,474.00
2023-05-05T03:43:25.215Z,473.00
2023-05-05T03:44:25.230Z,473.00
2023-05-05T03:45:25.204Z,473.00
2023-05-05T03:46:25.171Z,475.00
2023-05-05T03:47:25.162Z,474.00
2023-05-05T03:48:25.173Z,473.00
2023-05-05T03:49:25.145Z,470.00
2023-05-05T03:50:25.168Z,469.00
2023-05-05T03:51:25.129Z,470.00
2023-05-05T03:52:25.116Z,469.00
2023-05-05T03:53:25.134Z,470.00
2023-05-05T03:54:25.119Z,468.00
2023-05-05T03:55:25.173Z,471.00
2023-05-05T03:56:25.159Z,468.00
2023-05-05T03:57:25.196Z,465.00
2023-05-05T03:58:25.209Z,464.00
2023-05-05T03:59:25.266Z,466.00
2023-05-05T04:00:25.290Z,467.00
2023-05-05T04:01:25.372Z,466.00
2023-05-05T04:02:25.505Z,465.00
2023-05-05T04:03:25.572Z,466.00
2023-05-05T04:04:25.506Z,466.00
2023-05-05T04:05:25.488Z,467.00
2023-05-05T04:06:25.537Z,468.00
2023-05-05T04:07:25.584Z,472.00
2023-05-05T04:08:25.621Z,473.00
2023-05-05T04:09:25.631Z,478.00
2023-05-05T04:10:25.693Z,478.00
2023-05-05T04:11:25.741Z,481.00
2023-05-05T04:12:25.773Z,484.00
2023-05-05T04:13:25.878Z,487.00
2023-05-05T04:14:25.884Z,486.00
2023-05-05T04:15:25.898Z,488.00
2023-05-05T04:16:26.038Z,490.00
2023-05-05T04:17:26.044Z,491.00
2023-05-05T04:18:26.098Z,492.00
2023-05-05T04:19:26.132Z,491.00
2023-05-05T04:20:26.201Z,491.00
2023-05-05T04:21:26.238Z,492.00
2023-05-05T04:22:26.323Z,493.00
2023-05-05T04:23:26.334Z,495.00
2023-05-05T04:24:26.367Z,493.00
2023-05-05T04:25:26.420Z,497.00
2023-05-05T04:26:26.506Z,503.00
2023-05-05T04:27:26.538Z,502.00
2023-05-05T04:28:26.592Z,502.00
2023-05-05T04:29:26.647Z,501.00
2023-05-05T04:30:26.656Z,500.00
2023-05-05T04:31:26.774Z,500.00
2023-05-05T04:32:26.859Z,501.00
2023-05-05T04:33:26.840Z,501.00
2023-05-05T04:34:26.889Z,503.00
2023-05-05T04:35:26.932Z,504.00
2023-05-05T04:36:26.979Z,501.00
2023-05-05T04:37:27.032Z,501.00
2023-05-05T04:38:27.119Z,498.00
2023-05-05T04:39:27.092Z,501.00
2023-05-05T04:40:27.167Z,502.00
2023-05-05T04:41:28.904Z,499.00
2023-05-05T04:42:27.190Z,498.00
2023-05-05T04:43:27.184Z,497.00
2023-05-05T04:44:27.136Z,497.00
2023-05-05T04:45:27.140Z,498.00
2023-05-05T04:46:27.182Z,499.00
2023-05-05T04:47:27.245Z,497.00
2023-05-05T04:48:27.125Z,498.00
2023-05-05T04:49:27.117Z,495.00
2023-05-05T04:50:27.102Z,493.00
2023-05-05T04:51:27.103Z,494.00
2023-05-05T04:52:27.120Z,493.00
2023-05-05T04:53:27.102Z,491.00
2023-05-05T04:54:27.166Z,490.00
2023-05-05T04:55:27.075Z,491.00
2023-05-05T04:56:27.058Z,491.00
2023-05-05T04:57:27.069Z,493.00
2023-05-05T04:58:27.080Z,495.00
2023-05-05T04:59:27.051Z,495.00
2023-05-05T05:00:27.027Z,497.00
2023-05-05T05:01:27.108Z,497.00
2023-05-05T05:02:27.064Z,496.00
2023-05-05T05:03:27.153Z,497.00
2023-05-05T05:04:26.985Z,497.00
2023-05-05T05:05:27.002Z,496.00
2023-05-05T05:06:27.037Z,494.00
2023-05-05T05:07:26.992Z,494.00
2023-05-05T05:08:27.012Z,495.00
2023-05-05T05:09:26.995Z,495.00
2023-05-05T05:10:26.960Z,496.00
2023-05-05T05:11:26.974Z,496.00
2023-05-05T05:12:26.947Z,500.00
2023-05-05T05:13:27.006Z,500.00
2023-05-05T05:14:26.985Z,501.00
2023-05-05T05:15:26.936Z,497.00
2023-05-05T05:16:27.060Z,496.00
2023-05-05T05:17:27.013Z,499.00
2023-05-05T05:18:26.959Z,500.00
2023-05-05T05:19:26.911Z,500.00
2023-05-05T05:20:26.892Z,498.00
2023-05-05T05:21:26.930Z,499.00
2023-05-05T05:22:26.893Z,501.00
2023-05-05T05:23:26.925Z,500.00
2023-05-05T05:24:26.869Z,501.00
2023-05-05T05:25:26.883Z,503.00
2023-05-05T05:26:26.861Z,503.00
2023-05-05T05:27:26.879Z,504.00
2023-05-05T05:28:26.877Z,505.00
2023-05-05T05:29:26.847Z,507.00
2023-05-05T05:30:26.855Z,506.00
2023-05-05T05:31:26.847Z,504.00
2023-05-05T05:32:26.940Z,506.00
2023-05-05T05:33:26.991Z,508.00
2023-05-05T05:34:26.834Z,508.00
2023-05-05T05:35:26.838Z,514.00
2023-05-05T05:36:27.034Z,560.00
2023-05-05T05:37:26.905Z,594.00
2023-05-05T05:38:26.815Z,618.00
2023-05-05T05:39:26.812Z,625.00
2023-05-05T05:40:26.856Z,634.00
2023-05-05T05:41:26.768Z,703.00
2023-05-05T05:42:27.884Z,698.00
2023-05-05T05:43:26.775Z,703.00
2023-05-05T05:44:27.037Z,709.00
2023-05-05T05:45:26.740Z,714.00
2023-05-05T05:46:26.776Z,872.00
2023-05-05T05:47:26.769Z,802.00
2023-05-05T05:48:26.804Z,802.00
2023-05-05T05:49:26.714Z,798.00
2023-05-05T05:50:26.790Z,788.00
2023-05-05T05:51:26.728Z,774.00
2023-05-05T05:52:26.696Z,758.00
2023-05-05T05:53:26.699Z,753.00
2023-05-05T05:54:27.070Z,746.00
2023-05-05T05:55:26.692Z,742.00
2023-05-05T05:56:26.736Z,732.00
2023-05-05T05:57:27.037Z,725.00
2023-05-05T05:58:26.667Z,719.00
2023-05-05T05:59:26.735Z,711.00
2023-05-05T06:00:26.758Z,701.00
2023-05-05T06:01:26.632Z,691.00
2023-05-05T06:02:26.847Z,686.00
2023-05-05T06:03:26.985Z,678.00
2023-05-05T06:04:26.711Z,673.00
2023-05-05T06:05:26.622Z,668.00
2023-05-05T06:06:26.689Z,662.00
2023-05-05T06:07:26.735Z,660.00
2023-05-05T06:08:27.063Z,658.00
2023-05-05T06:09:26.849Z,652.00
2023-05-05T06:10:28.301Z,647.00
2023-05-05T06:11:26.956Z,644.00
2023-05-05T06:12:26.992Z,641.00
2023-05-05T06:13:27.588Z,638.00
2023-05-05T06:14:27.114Z,637.00
2023-05-05T06:15:27.154Z,634.00
2023-05-05T06:16:27.231Z,628.00
2023-05-05T06:17:27.241Z,621.00
2023-05-05T06:18:27.382Z,618.00
2023-05-05T06:19:27.346Z,614.00
2023-05-05T06:20:27.391Z,609.00
2023-05-05T06:21:27.519Z,602.00
2023-05-05T06:22:27.457Z,601.00
2023-05-05T06:23:27.509Z,601.00
2023-05-05T06:24:27.576Z,599.00
2023-05-05T06:25:27.580Z,599.00
2023-05-05T06:26:27.607Z,594.00
2023-05-05T06:27:27.643Z,593.00
2023-05-05T06:28:28.030Z,590.00
2023-05-05T06:29:27.726Z,587.00
2023-05-05T06:30:27.737Z,587.00
2023-05-05T06:31:27.752Z,584.00
2023-05-05T06:32:27.779Z,582.00
2023-05-05T06:33:27.722Z,583.00
2023-05-05T06:34:27.743Z,582.00
2023-05-05T06:35:27.851Z,584.00
2023-05-05T06:36:27.758Z,583.00
2023-05-05T06:37:27.767Z,582.00
2023-05-05T06:38:27.752Z,582.00
2023-05-05T06:39:27.728Z,584.00
2023-05-05T06:40:28.098Z,584.00
2023-05-05T06:41:27.825Z,583.00
2023-05-05T06:42:27.881Z,582.00
2023-05-05T06:43:27.888Z,582.00
2023-05-05T06:44:27.972Z,580.00
2023-05-05T06:45:28.009Z,579.00
2023-05-05T06:46:28.103Z,579.00
2023-05-05T06:47:28.147Z,580.00
2023-05-05T06:48:28.226Z,581.00
2023-05-05T06:49:28.253Z,583.00
2023-05-05T06:50:28.286Z,583.00
2023-05-05T06:51:28.398Z,582.00
2023-05-05T06:52:28.588Z,580.00
2023-05-05T06:53:28.469Z,580.00
2023-05-05T06:54:28.550Z,576.00
2023-05-05T06:55:29.072Z,576.00
2023-05-05T06:56:29.135Z,577.00
2023-05-05T06:57:28.724Z,577.00
2023-05-05T06:58:28.777Z,576.00
2023-05-05T06:59:28.907Z,575.00
2023-05-05T07:00:28.854Z,574.00
2023-05-05T07:01:28.927Z,575.00
2023-05-05T07:02:28.994Z,578.00
2023-05-05T07:03:29.018Z,579.00
2023-05-05T07:04:29.565Z,575.00
2023-05-05T07:05:29.142Z,575.00
2023-05-05T07:06:29.184Z,572.00
2023-05-05T07:07:29.198Z,574.00
2023-05-05T07:08:29.593Z,575.00
2023-05-05T07:09:29.299Z,574.00
2023-05-05T07:10:29.416Z,570.00
2023-05-05T07:11:29.382Z,569.00
2023-05-05T07:12:29.500Z,572.00
2023-05-05T07:13:29.838Z,572.00
2023-05-05T07:14:29.471Z,573.00
2023-05-05T07:15:29.887Z,573.00
2023-05-05T07:16:29.543Z,572.00
2023-05-05T07:17:29.623Z,572.00
2023-05-05T07:18:29.596Z,574.00
2023-05-05T07:19:29.650Z,574.00
2023-05-05T07:20:29.653Z,570.00
2023-05-05T07:21:29.680Z,567.00
2023-05-05T07:22:29.662Z,567.00
2023-05-05T07:23:29.686Z,567.00
2023-05-05T07:24:29.731Z,564.00
2023-05-05T07:25:29.680Z,565.00
2023-05-05T07:26:29.689Z,565.00
2023-05-05T07:27:29.725Z,565.00
2023-05-05T07:28:30.141Z,565.00
2023-05-05T07:29:29.752Z,564.00
2023-05-05T07:30:29.760Z,564.00
2023-05-05T07:31:29.785Z,565.00
2023-05-05T07:32:29.876Z,566.00
2023-05-05T07:33:29.762Z,574.00
2023-05-05T07:34:29.775Z,689.00
2023-05-05T07:35:30.102Z,674.00
2023-05-05T07:36:29.856Z,665.00
2023-05-05T07:37:29.853Z,664.00
2023-05-05T07:38:30.189Z,667.00
2023-05-05T07:39:30.122Z,673.00
2023-05-05T07:40:30.218Z,677.00
2023-05-05T07:41:29.918Z,678.00
2023-05-05T07:42:29.965Z,678.00
2023-05-05T07:43:29.933Z,673.00
2023-05-05T07:44:30.151Z,668.00
2023-05-05T07:45:30.086Z,660.00
2023-05-05T07:46:29.966Z,657.00
2023-05-05T07:47:30.239Z,650.00
2023-05-05T07:48:29.968Z,643.00
2023-05-05T07:49:30.073Z,638.00
2023-05-05T07:50:30.095Z,631.00
2023-05-05T07:51:30.206Z,625.00
2023-05-05T07:52:44.307Z,622.00
2023-05-05T07:53:31.124Z,619.00
2023-05-05T07:54:30.106Z,615.00
2023-05-05T07:55:30.034Z,612.00
2023-05-05T07:56:30.013Z,607.00
2023-05-05T07:57:30.026Z,602.00
2023-05-05T07:58:30.006Z,598.00
2023-05-05T07:59:29.998Z,595.00
2023-05-05T08:00:30.185Z,592.00
2023-05-05T08:01:30.053Z,590.00
2023-05-05T08:02:30.109Z,587.00
2023-05-05T08:03:30.165Z,587.00
2023-05-05T08:04:30.012Z,582.00
2023-05-05T08:05:29.981Z,580.00
2023-05-05T08:06:29.997Z,577.00
2023-05-05T08:07:29.923Z,577.00
2023-05-05T08:08:29.957Z,571.00
2023-05-05T08:09:29.969Z,565.00
2023-05-05T08:10:29.953Z,565.00
2023-05-05T08:11:29.912Z,561.00
2023-05-05T08:12:29.931Z,558.00
2023-05-05T08:13:29.917Z,557.00
2023-05-05T08:14:29.907Z,554.00
2023-05-05T08:15:29.862Z,550.00
2023-05-05T08:16:30.129Z,549.00
2023-05-05T08:17:29.959Z,547.00
2023-05-05T08:18:30.552Z,547.00
2023-05-05T08:19:29.910Z,548.00
2023-05-05T08:20:30.110Z,548.00
2023-05-05T08:21:29.889Z,551.00
2023-05-05T08:22:29.955Z,551.00
2023-05-05T08:23:29.931Z,552.00
2023-05-05T08:24:30.008Z,550.00
2023-05-05T08:25:30.095Z,551.00
2023-05-05T08:26:30.091Z,557.00
2023-05-05T08:27:30.100Z,670.00
2023-05-05T08:28:30.226Z,689.00
2023-05-05T08:29:30.627Z,693.00
2023-05-05T08:30:30.118Z,685.00
2023-05-05T08:31:30.194Z,652.00
2023-05-05T08:32:30.333Z,616.00
2023-05-05T08:33:30.223Z,623.00
2023-05-05T08:34:30.284Z,600.00
2023-05-05T08:35:30.343Z,576.00
2023-05-05T08:36:30.394Z,569.00
2023-05-05T08:37:30.605Z,564.00
2023-05-05T08:38:30.487Z,555.00
2023-05-05T08:39:30.596Z,547.00
2023-05-05T08:40:30.629Z,539.00
2023-05-05T08:41:30.681Z,536.00
2023-05-05T08:42:37.977Z,531.00
2023-05-05T08:43:32.114Z,540.00
2023-05-05T08:44:30.714Z,642.00
2023-05-05T08:45:30.790Z,612.00
2023-05-05T08:46:31.188Z,623.00
2023-05-05T08:47:30.778Z,634.00
2023-05-05T08:48:30.793Z,640.00
2023-05-05T08:49:30.698Z,648.00
2023-05-05T08:50:30.709Z,655.00
2023-05-05T08:51:30.703Z,659.00
2023-05-05T08:52:30.827Z,677.00
2023-05-05T08:53:30.888Z,692.00
2023-05-05T08:54:31.142Z,711.00
2023-05-05T08:55:30.884Z,710.00
2023-05-05T08:56:30.878Z,714.00
2023-05-05T08:57:30.918Z,722.00
2023-05-05T08:58:30.926Z,727.00
2023-05-05T08:59:30.979Z,740.00
2023-05-05T09:00:31.029Z,740.00
2023-05-05T09:01:31.097Z,737.00
2023-05-05T09:02:31.086Z,734.00
2023-05-05T09:03:31.075Z,730.00
2023-05-05T09:04:31.281Z,725.00
2023-05-05T09:05:31.107Z,724.00
2023-05-05T09:06:31.066Z,726.00
2023-05-05T09:07:31.142Z,723.00
2023-05-05T09:08:31.129Z,711.00
2023-05-05T09:09:31.138Z,675.00
2023-05-05T09:10:31.158Z,661.00
2023-05-05T09:11:31.185Z,669.00
2023-05-05T09:12:31.717Z,669.00
2023-05-05T09:13:31.623Z,665.00
2023-05-05T09:14:31.229Z,660.00
2023-05-05T09:15:31.280Z,651.00
2023-05-05T09:16:31.342Z,621.00
2023-05-05T09:17:31.368Z,604.00
2023-05-05T09:18:31.657Z,584.00
2023-05-05T09:19:31.620Z,577.00
2023-05-05T09:20:31.695Z,573.00
2023-05-05T09:21:31.515Z,574.00
2023-05-05T09:22:31.560Z,576.00
2023-05-05T09:23:31.685Z,578.00
2023-05-05T09:24:31.653Z,582.00
2023-05-05T09:25:31.716Z,592.00
2023-05-05T09:26:31.755Z,617.00
2023-05-05T09:27:32.108Z,629.00
2023-05-05T09:28:32.118Z,642.00
2023-05-05T09:29:31.936Z,648.00
2023-05-05T09:30:32.059Z,650.00
2023-05-05T09:31:32.094Z,667.00
2023-05-05T09:32:32.157Z,680.00
2023-05-05T09:33:32.178Z,697.00
2023-05-05T09:34:32.149Z,731.00
2023-05-05T09:35:32.237Z,732.00
2023-05-05T09:36:33.181Z,711.00
2023-05-05T09:37:32.304Z,754.00
2023-05-05T09:38:32.658Z,733.00
2023-05-05T09:39:32.314Z,720.00
2023-05-05T09:40:32.344Z,706.00
2023-05-05T09:41:32.405Z,651.00
2023-05-05T09:42:32.410Z,651.00
2023-05-05T09:43:32.654Z,649.00
2023-05-05T09:44:32.425Z,653.00
2023-05-05T09:45:32.457Z,669.00
2023-05-05T09:46:32.542Z,680.00
2023-05-05T09:47:32.955Z,664.00
2023-05-05T09:48:32.694Z,634.00
2023-05-05T09:49:32.531Z,633.00
2023-05-05T09:50:32.664Z,638.00
2023-05-05T09:51:32.586Z,629.00
2023-05-05T09:52:32.691Z,632.00
2023-05-05T09:53:33.141Z,642.00
2023-05-05T09:54:32.709Z,692.00
2023-05-05T09:55:32.744Z,682.00
2023-05-05T09:56:32.701Z,666.00
2023-05-05T09:57:32.787Z,649.00
2023-05-05T09:58:32.806Z,638.00
2023-05-05T09:59:32.853Z,604.00
2023-05-05T10:00:32.892Z,585.00
2023-05-05T10:01:32.956Z,586.00
2023-05-05T10:02:33.087Z,580.00
2023-05-05T10:03:33.038Z,578.00
2023-05-05T10:04:33.163Z,575.00
2023-05-05T10:05:33.149Z,573.00
2023-05-05T10:06:33.209Z,563.00
2023-05-05T10:07:33.263Z,553.00
2023-05-05T10:08:33.388Z,554.00
2023-05-05T10:09:33.337Z,547.00
2023-05-05T10:10:33.405Z,542.00
2023-05-05T10:11:33.457Z,543.00
2023-05-05T10:12:33.536Z,576.00
2023-05-05T10:13:33.557Z,582.00
2023-05-05T10:14:33.629Z,579.00
2023-05-05T10:15:33.808Z,577.00
2023-05-05T10:16:34.205Z,574.00
2023-05-05T10:17:33.894Z,572.00
2023-05-05T10:18:33.920Z,572.00
2023-05-05T10:19:33.955Z,566.00
2023-05-05T10:20:34.020Z,567.00
2023-05-05T10:21:34.090Z,569.00
2023-05-05T10:22:34.135Z,563.00
2023-05-05T10:23:34.123Z,564.00
2023-05-05T10:24:34.278Z,565.00
2023-05-05T10:25:34.266Z,568.00
2023-05-05T10:26:34.343Z,578.00
2023-05-05T10:27:34.376Z,587.00
2023-05-05T10:28:34.452Z,590.00
2023-05-05T10:29:34.505Z,587.00
2023-05-05T10:30:34.499Z,588.00
2023-05-05T10:31:34.619Z,593.00
2023-05-05T10:33:35.752Z,603.00
2023-05-05T10:34:34.657Z,603.00
2023-05-05T10:35:34.581Z,629.00
2023-05-05T10:36:34.595Z,634.00
2023-05-05T10:37:34.672Z,636.00
2023-05-05T10:38:34.548Z,633.00
2023-05-05T10:39:34.558Z,633.00
2023-05-05T10:40:34.538Z,642.00
2023-05-05T10:41:34.655Z,649.00
2023-05-05T10:42:34.538Z,652.00
2023-05-05T10:43:34.501Z,663.00
2023-05-05T10:44:34.497Z,685.00
2023-05-05T10:45:34.654Z,685.00
2023-05-05T10:46:34.552Z,693.00
2023-05-05T10:47:34.538Z,702.00
2023-05-05T10:48:34.506Z,699.00
2023-05-05T10:49:34.488Z,697.00
2023-05-05T10:50:34.489Z,694.00
2023-05-05T10:51:40.354Z,687.00
2023-05-05T10:52:35.672Z,682.00
2023-05-05T10:53:34.465Z,680.00
2023-05-05T10:54:35.766Z,677.00
2023-05-05T10:55:34.675Z,674.00
2023-05-05T10:56:34.453Z,673.00
2023-05-05T10:57:34.690Z,672.00
2023-05-05T10:58:40.804Z,676.00
2023-05-05T10:59:35.425Z,688.00
2023-05-05T11:00:34.394Z,704.00
2023-05-05T11:01:34.627Z,735.00
2023-05-05T11:02:34.714Z,744.00
2023-05-05T11:03:34.424Z,749.00
2023-05-05T11:04:34.366Z,763.00
2023-05-05T11:05:34.391Z,772.00
2023-05-05T11:06:34.389Z,798.00
2023-05-05T11:07:34.705Z,814.00
2023-05-05T11:08:34.350Z,822.00
2023-05-05T11:09:34.327Z,831.00
2023-05-05T11:10:34.476Z,841.00
2023-05-05T11:11:34.318Z,849.00
2023-05-05T11:12:36.067Z,857.00
2023-05-05T11:13:34.310Z,864.00
2023-05-05T11:14:34.669Z,872.00
2023-05-05T11:15:34.320Z,880.00
2023-05-05T11:16:34.358Z,942.00
2023-05-05T11:17:34.345Z,944.00
2023-05-05T11:18:34.263Z,945.00
2023-05-05T11:19:34.715Z,932.00
2023-05-05T11:20:34.249Z,916.00
2023-05-05T11:21:34.687Z,904.00
2023-05-05T11:22:34.230Z,896.00
2023-05-05T11:23:34.251Z,889.00
2023-05-05T11:24:34.276Z,883.00
2023-05-05T11:25:34.239Z,872.00
2023-05-05T11:26:34.221Z,858.00
2023-05-05T11:27:34.253Z,838.00
2023-05-05T11:28:34.280Z,819.00
2023-05-05T11:29:34.245Z,806.00
2023-05-05T11:30:34.218Z,800.00
2023-05-05T11:31:34.247Z,793.00
2023-05-05T11:32:34.320Z,783.00
2023-05-05T11:33:34.230Z,776.00
2023-05-05T11:34:34.160Z,767.00
2023-05-05T11:35:34.164Z,756.00
2023-05-05T11:36:34.204Z,745.00
2023-05-05T11:37:34.139Z,736.00
2023-05-05T11:38:34.207Z,726.00
2023-05-05T11:39:34.153Z,716.00
2023-05-05T11:40:34.165Z,711.00
2023-05-05T11:41:34.108Z,705.00
2023-05-05T11:42:34.114Z,698.00
2023-05-05T11:43:34.083Z,693.00
2023-05-05T11:44:34.173Z,683.00
2023-05-05T11:45:34.139Z,675.00
2023-05-05T11:46:34.080Z,668.00
2023-05-05T11:47:34.109Z,661.00
2023-05-05T11:48:34.059Z,655.00
2023-05-05T11:49:34.092Z,649.00
2023-05-05T11:50:34.068Z,643.00
2023-05-05T11:51:34.054Z,636.00
2023-05-05T11:52:34.042Z,632.00
2023-05-05T11:53:34.029Z,622.00
2023-05-05T11:54:34.057Z,615.00
2023-05-05T11:55:34.004Z,613.00
2023-05-05T11:56:34.009Z,608.00
2023-05-05T11:57:33.962Z,603.00
2023-05-05T11:58:34.026Z,601.00
2023-05-05T11:59:33.959Z,601.00
2023-05-05T12:00:34.071Z,603.00
2023-05-05T12:01:33.991Z,602.00
2023-05-05T12:02:34.040Z,601.00
2023-05-05T12:03:34.058Z,600.00
2023-05-05T12:04:33.994Z,600.00
2023-05-05T12:05:36.400Z,599.00
2023-05-05T12:06:33.915Z,598.00
2023-05-05T12:07:33.928Z,598.00
2023-05-05T12:08:33.931Z,592.00
2023-05-05T12:09:33.894Z,587.00
2023-05-05T12:10:33.886Z,586.00
2023-05-05T12:11:33.907Z,584.00
2023-05-05T12:12:33.931Z,593.00
2023-05-05T12:13:33.916Z,606.00
2023-05-05T12:14:33.923Z,609.00
2023-05-05T12:15:33.863Z,607.00
2023-05-05T12:16:33.925Z,602.00
2023-05-05T12:17:33.874Z,600.00
2023-05-05T12:18:33.847Z,600.00
2023-05-05T12:19:33.838Z,595.00
2023-05-05T12:20:33.801Z,592.00
2023-05-05T12:21:33.792Z,589.00
2023-05-05T12:22:33.825Z,587.00
2023-05-05T12:23:33.826Z,584.00
2023-05-05T12:24:33.801Z,584.00
2023-05-05T12:25:33.785Z,583.00
2023-05-05T12:26:33.791Z,573.00
2023-05-05T12:27:33.764Z,569.00
2023-05-05T12:28:33.764Z,562.00
2023-05-05T12:29:33.762Z,559.00